createdAt,value
2023-03-29T00:02:07.965Z,1.76
2023-03-29T00:04:41.682Z,1.81
2023-03-29T00:07:15.516Z,1.80
2023-03-29T00:09:48.513Z,1.72
2023-03-29T00:12:21.129Z,1.63
2023-03-29T00:14:53.769Z,1.61
2023-03-29T00:17:26.825Z,1.62
2023-03-29T00:19:59.457Z,1.64
2023-03-29T00:22:32.527Z,1.62
2023-03-29T00:25:07.338Z,1.64
2023-03-29T00:27:39.332Z,1.67
2023-03-29T00:30:15.202Z,1.68
2023-03-29T00:32:48.216Z,1.67
2023-03-29T00:35:21.252Z,1.68
2023-03-29T00:37:53.729Z,1.72
2023-03-29T00:40:26.177Z,1.66
2023-03-29T00:43:00.628Z,1.59
2023-03-29T00:45:35.544Z,1.57
2023-03-29T00:48:12.363Z,1.51
2023-03-29T00:51:01.767Z,1.50
2023-03-29T00:53:38.020Z,1.47
2023-03-29T00:56:16.919Z,1.46
2023-03-29T00:59:17.896Z,1.55
2023-03-29T01:01:55.367Z,1.64
2023-03-29T01:04:52.961Z,1.61
2023-03-29T01:07:55.713Z,1.59
2023-03-29T01:10:41.504Z,1.52
2023-03-29T01:13:18.091Z,1.49
2023-03-29T01:15:51.374Z,1.44
2023-03-29T01:18:24.172Z,1.40
2023-03-29T01:21:24.768Z,1.44
2023-03-29T01:24:33.424Z,1.52
2023-03-29T01:27:52.199Z,1.55
2023-03-29T01:30:41.836Z,1.54
2023-03-29T01:33:25.940Z,1.55
2023-03-29T01:36:05.825Z,1.59
2023-03-29T01:38:49.006Z,1.61
2023-03-29T01:41:32.447Z,1.60
2023-03-29T01:44:11.526Z,1.57
2023-03-29T01:46:53.723Z,1.58
2023-03-29T01:49:52.175Z,1.54
2023-03-29T01:52:48.241Z,1.55
2023-03-29T01:55:26.433Z,1.60
2023-03-29T01:58:00.780Z,1.63
2023-03-29T02:00:34.363Z,1.65
2023-03-29T02:03:10.300Z,1.69
2023-03-29T02:05:42.999Z,1.58
2023-03-29T02:08:17.805Z,1.56
2023-03-29T02:10:51.888Z,1.57
2023-03-29T02:13:25.162Z,1.57
2023-03-29T02:15:59.619Z,1.59
2023-03-29T02:18:32.520Z,1.63
2023-03-29T02:21:05.081Z,1.66
2023-03-29T02:23:45.584Z,1.71
2023-03-29T02:26:19.166Z,1.66
2023-03-29T02:28:52.950Z,1.61
2023-03-29T02:31:52.690Z,1.59
2023-03-29T02:34:37.749Z,1.60
2023-03-29T02:37:13.509Z,1.63
2023-03-29T02:39:47.808Z,1.62
2023-03-29T02:42:20.634Z,1.67
2023-03-29T02:44:57.126Z,1.62
2023-03-29T02:47:48.791Z,1.59
2023-03-29T02:50:22.303Z,1.58
2023-03-29T02:53:00.864Z,1.55
2023-03-29T02:55:36.063Z,1.55
2023-03-29T02:58:12.870Z,1.52
2023-03-29T03:00:48.837Z,1.55
2023-03-29T03:03:22.649Z,1.63
2023-03-29T03:05:56.169Z,1.64
2023-03-29T03:08:30.127Z,1.69
2023-03-29T03:11:03.978Z,1.70
2023-03-29T03:13:38.327Z,1.72
2023-03-29T03:16:12.120Z,1.75
2023-03-29T03:18:46.178Z,1.74
2023-03-29T03:21:21.033Z,1.75
2023-03-29T03:23:54.446Z,1.80
2023-03-29T03:26:29.543Z,1.81
2023-03-29T03:29:02.075Z,1.80
2023-03-29T03:31:54.451Z,1.75
2023-03-29T03:34:31.529Z,1.71
2023-03-29T03:37:05.968Z,1.70
2023-03-29T03:39:39.526Z,1.68
2023-03-29T03:42:13.627Z,1.60
2023-03-29T03:44:48.026Z,1.50
2023-03-29T03:47:25.694Z,1.54
2023-03-29T03:49:59.937Z,1.57
2023-03-29T03:52:33.118Z,1.60
2023-03-29T03:55:08.479Z,1.54
2023-03-29T03:57:54.971Z,1.53
2023-03-29T04:00:27.948Z,1.46
2023-03-29T04:03:04.937Z,1.43
2023-03-29T04:05:43.567Z,1.47
2023-03-29T04:08:17.051Z,1.42
2023-03-29T04:11:07.781Z,1.46
2023-03-29T04:13:42.408Z,1.45
2023-03-29T04:16:20.098Z,1.42
2023-03-29T04:18:52.753Z,1.41
2023-03-29T04:21:27.482Z,1.41
2023-03-29T04:26:33.322Z,1.34
2023-03-29T04:29:11.166Z,1.25
2023-03-29T04:34:39.364Z,1.29
2023-03-29T04:37:12.603Z,1.33
2023-03-29T04:39:45.697Z,1.38
2023-03-29T04:42:19.238Z,1.45
2023-03-29T04:44:53.383Z,1.49
2023-03-29T04:47:31.779Z,1.45
2023-03-29T04:50:10.830Z,1.44
2023-03-29T04:52:45.775Z,1.37
2023-03-29T04:55:18.816Z,1.36
2023-03-29T04:57:59.227Z,1.33
2023-03-29T05:00:36.981Z,1.33
2023-03-29T05:03:28.092Z,1.36
2023-03-29T05:06:07.303Z,1.38
2023-03-29T05:08:41.854Z,1.42
2023-03-29T05:11:20.211Z,1.38
2023-03-29T05:13:53.207Z,1.40
2023-03-29T05:16:26.727Z,1.41
2023-03-29T05:19:01.140Z,1.49
2023-03-29T05:21:35.466Z,1.48
2023-03-29T05:24:11.110Z,1.45
2023-03-29T05:26:46.866Z,1.45
2023-03-29T05:29:20.879Z,1.50
2023-03-29T05:31:56.463Z,1.46
2023-03-29T05:34:30.147Z,1.38
2023-03-29T05:37:04.092Z,1.36
2023-03-29T05:39:38.389Z,1.38
2023-03-29T05:42:13.741Z,1.45
2023-03-29T05:44:58.676Z,1.48
2023-03-29T05:47:31.972Z,1.51
2023-03-29T05:50:05.350Z,1.55
2023-03-29T05:52:38.953Z,1.57
2023-03-29T05:55:12.520Z,1.61
2023-03-29T05:57:45.943Z,1.59
2023-03-29T06:00:22.034Z,1.52
2023-03-29T06:03:03.765Z,1.39
2023-03-29T06:05:32.402Z,1.35
2023-03-29T06:08:05.888Z,1.36
2023-03-29T06:10:42.568Z,1.41
2023-03-29T06:13:20.596Z,1.49
2023-03-29T06:15:55.050Z,1.53
2023-03-29T06:18:30.322Z,1.52
2023-03-29T06:21:04.447Z,1.55
2023-03-29T06:23:38.135Z,1.54
2023-03-29T06:26:11.202Z,1.52
2023-03-29T06:28:44.346Z,1.51
2023-03-29T06:31:17.683Z,1.53
2023-03-29T06:33:51.072Z,1.57
2023-03-29T06:36:37.918Z,1.63
2023-03-29T06:39:12.220Z,1.65
2023-03-29T06:41:46.587Z,1.63
2023-03-29T06:44:25.715Z,1.61
2023-03-29T06:47:02.692Z,1.59
2023-03-29T06:49:35.713Z,1.55
2023-03-29T06:52:11.252Z,1.57
2023-03-29T06:54:44.318Z,1.64
2023-03-29T06:57:18.921Z,1.66
2023-03-29T06:59:53.267Z,1.63
2023-03-29T07:02:29.215Z,1.61
2023-03-29T07:05:14.699Z,1.61
2023-03-29T07:08:00.014Z,1.64
2023-03-29T07:10:53.499Z,1.63
2023-03-29T07:13:44.613Z,1.57
2023-03-29T07:16:19.560Z,1.67
2023-03-29T07:19:11.400Z,1.77
2023-03-29T07:22:02.339Z,1.78
2023-03-29T07:24:42.737Z,1.72
2023-03-29T07:27:16.609Z,1.73
2023-03-29T07:29:51.575Z,1.80
2023-03-29T07:32:24.349Z,1.82
2023-03-29T07:35:04.943Z,1.70
2023-03-29T07:37:39.570Z,1.66
2023-03-29T07:40:16.361Z,1.68
2023-03-29T07:43:06.206Z,1.70
2023-03-29T07:45:40.529Z,1.73
2023-03-29T07:48:19.650Z,1.70
2023-03-29T07:50:59.883Z,1.68
2023-03-29T07:53:37.206Z,1.70
2023-03-29T07:56:12.090Z,1.68
2023-03-29T07:58:46.961Z,1.62
2023-03-29T08:01:20.645Z,1.63
2023-03-29T08:04:07.419Z,1.63
2023-03-29T08:06:44.234Z,1.70
2023-03-29T08:09:17.681Z,1.76
2023-03-29T08:11:51.108Z,1.84
2023-03-29T08:14:26.146Z,1.80
2023-03-29T08:17:03.916Z,1.84
2023-03-29T08:19:37.297Z,1.81
2023-03-29T08:22:12.592Z,1.86
2023-03-29T08:25:04.472Z,1.83
2023-03-29T08:27:39.056Z,1.75
2023-03-29T08:30:14.693Z,1.80
2023-03-29T08:32:50.928Z,1.81
2023-03-29T08:35:21.567Z,1.83
2023-03-29T08:37:58.546Z,1.88
2023-03-29T08:40:32.235Z,1.94
2023-03-29T08:43:55.820Z,1.95
2023-03-29T08:47:03.088Z,1.93
2023-03-29T08:49:44.760Z,1.98
2023-03-29T08:52:26.494Z,2.04
2023-03-29T08:54:59.932Z,2.14
2023-03-29T08:57:36.245Z,2.04
2023-03-29T09:00:14.990Z,2.01
2023-03-29T09:03:00.291Z,1.99
2023-03-29T09:05:36.458Z,1.94
2023-03-29T09:08:18.408Z,1.97
2023-03-29T09:11:12.774Z,1.98
2023-03-29T09:14:24.508Z,2.05
2023-03-29T09:17:26.562Z,2.05
2023-03-29T09:20:10.603Z,2.11
2023-03-29T09:22:54.666Z,2.13
2023-03-29T09:26:16.506Z,2.22
2023-03-29T09:29:17.854Z,2.25
2023-03-29T09:31:50.411Z,2.29
2023-03-29T09:34:34.885Z,2.29
2023-03-29T09:37:16.813Z,2.24
2023-03-29T09:39:49.767Z,2.28
2023-03-29T09:42:23.337Z,2.32
2023-03-29T09:45:08.061Z,2.25
2023-03-29T09:47:53.766Z,2.18
2023-03-29T09:50:41.384Z,2.18
2023-03-29T09:53:19.898Z,2.17
2023-03-29T09:55:55.633Z,2.16
2023-03-29T09:58:43.306Z,2.07
2023-03-29T10:01:18.762Z,2.09
2023-03-29T10:03:54.035Z,2.17
2023-03-29T10:06:27.171Z,2.18
2023-03-29T10:09:04.870Z,2.17
2023-03-29T10:11:39.777Z,2.21
2023-03-29T10:14:22.507Z,2.19
2023-03-29T10:16:59.475Z,2.05
2023-03-29T10:19:36.839Z,2.04
2023-03-29T10:22:29.203Z,2.08
2023-03-29T10:25:02.380Z,2.19
2023-03-29T10:27:35.451Z,2.23
2023-03-29T10:30:16.469Z,2.13
2023-03-29T10:32:58.246Z,2.07
2023-03-29T10:35:43.440Z,2.03
2023-03-29T10:38:19.263Z,2.08
2023-03-29T10:40:55.229Z,2.14
2023-03-29T10:43:32.036Z,2.22
2023-03-29T10:46:23.740Z,2.31
2023-03-29T10:49:09.005Z,2.35
2023-03-29T10:51:45.791Z,2.34
2023-03-29T10:54:22.019Z,2.31
2023-03-29T10:56:59.465Z,2.30
2023-03-29T10:59:36.261Z,2.27
2023-03-29T11:02:32.292Z,2.34
2023-03-29T11:05:10.739Z,2.40
2023-03-29T11:08:15.446Z,2.46
2023-03-29T11:11:12.789Z,2.46
2023-03-29T11:14:02.743Z,2.51
2023-03-29T11:16:42.249Z,2.41
2023-03-29T11:19:43.607Z,2.40
2023-03-29T11:22:29.167Z,2.48
2023-03-29T11:25:22.378Z,2.51
2023-03-29T11:28:07.887Z,2.60
2023-03-29T11:31:12.501Z,2.71
2023-03-29T11:34:15.966Z,2.73
2023-03-29T11:37:08.870Z,2.68
2023-03-29T11:39:49.640Z,2.75
2023-03-29T11:42:29.942Z,2.71
2023-03-29T11:45:05.169Z,2.70
2023-03-29T11:47:39.277Z,2.72
2023-03-29T11:50:28.843Z,2.78
2023-03-29T11:53:09.414Z,2.80
2023-03-29T11:55:42.148Z,2.83
2023-03-29T11:58:22.960Z,2.91
2023-03-29T12:01:00.814Z,3.00
2023-03-29T12:04:00.586Z,3.09
2023-03-29T12:06:56.675Z,3.12
2023-03-29T12:09:42.640Z,3.09
2023-03-29T12:12:25.375Z,3.05
2023-03-29T12:15:25.096Z,3.09
2023-03-29T12:18:27.171Z,3.18
2023-03-29T12:21:03.418Z,3.29
2023-03-29T12:23:44.194Z,3.34
2023-03-29T12:26:38.082Z,3.38
2023-03-29T12:29:42.254Z,3.38
2023-03-29T12:32:39.073Z,3.40
2023-03-29T12:35:52.922Z,3.49
2023-03-29T12:38:42.578Z,3.56
2023-03-29T12:41:37.215Z,3.51
2023-03-29T12:44:27.463Z,3.40
2023-03-29T12:47:04.286Z,3.34
2023-03-29T12:49:39.299Z,3.40
2023-03-29T12:52:36.831Z,3.41
2023-03-29T12:55:54.391Z,3.40
2023-03-29T12:58:58.600Z,3.44
2023-03-29T13:01:37.876Z,3.53
2023-03-29T13:04:21.426Z,3.44
2023-03-29T13:07:04.793Z,3.36
2023-03-29T13:09:58.727Z,3.28
2023-03-29T13:12:43.368Z,3.33
2023-03-29T13:15:37.781Z,3.38
2023-03-29T13:18:34.277Z,3.40
2023-03-29T13:21:15.271Z,3.35
2023-03-29T13:24:18.947Z,3.24
2023-03-29T13:27:18.732Z,3.22
2023-03-29T13:30:09.347Z,3.10
2023-03-29T13:33:27.817Z,2.96
2023-03-29T13:36:11.258Z,2.87
2023-03-29T13:38:48.962Z,2.87
2023-03-29T13:41:44.643Z,2.92
2023-03-29T13:44:33.228Z,2.96
2023-03-29T13:47:27.725Z,2.99
2023-03-29T13:50:06.271Z,3.11
2023-03-29T13:52:42.756Z,3.15
2023-03-29T13:55:30.954Z,3.13
2023-03-29T13:58:07.639Z,3.08
2023-03-29T14:00:59.835Z,3.00
2023-03-29T14:03:38.490Z,3.03
2023-03-29T14:06:11.612Z,3.09
2023-03-29T14:08:45.455Z,3.16
2023-03-29T14:11:31.051Z,3.25
2023-03-29T14:14:06.729Z,3.24
2023-03-29T14:16:42.785Z,3.24
2023-03-29T14:19:34.233Z,3.18
2023-03-29T14:22:13.794Z,3.16
2023-03-29T14:24:56.986Z,3.15
2023-03-29T14:27:32.366Z,3.13
2023-03-29T14:30:25.117Z,3.14
2023-03-29T14:32:58.830Z,3.13
2023-03-29T14:35:33.499Z,3.10
2023-03-29T14:38:06.456Z,3.02
2023-03-29T14:40:39.012Z,3.00
2023-03-29T14:43:13.380Z,3.00
2023-03-29T14:45:46.620Z,3.04
2023-03-29T14:48:21.023Z,3.06
2023-03-29T14:50:53.816Z,3.08
2023-03-29T14:53:29.042Z,3.02
2023-03-29T14:56:02.389Z,2.96
2023-03-29T14:58:36.574Z,2.99
2023-03-29T15:01:21.735Z,3.06
2023-03-29T15:04:09.176Z,3.08
2023-03-29T15:06:44.410Z,3.01
2023-03-29T15:09:26.383Z,3.07
2023-03-29T15:12:00.660Z,3.11
2023-03-29T15:14:35.168Z,3.12
2023-03-29T15:17:39.089Z,3.03
2023-03-29T15:20:11.669Z,3.01
2023-03-29T15:23:06.940Z,3.02
2023-03-29T15:25:52.441Z,3.03
2023-03-29T15:28:34.034Z,3.05
2023-03-29T15:31:45.541Z,3.07
2023-03-29T15:34:28.828Z,3.01
2023-03-29T15:37:02.672Z,2.99
2023-03-29T15:39:39.011Z,2.99
2023-03-29T15:42:11.775Z,2.98
2023-03-29T15:44:44.679Z,2.92
2023-03-29T15:47:17.543Z,2.84
2023-03-29T15:49:51.842Z,2.82
2023-03-29T15:52:25.609Z,2.78
2023-03-29T15:54:59.208Z,2.75
2023-03-29T15:57:31.793Z,2.75
2023-03-29T16:00:08.222Z,2.75
2023-03-29T16:02:43.370Z,2.75
2023-03-29T16:05:17.498Z,2.73
2023-03-29T16:07:52.130Z,2.77
2023-03-29T16:10:24.890Z,2.81
2023-03-29T16:12:58.059Z,2.81
2023-03-29T16:15:31.218Z,2.77
2023-03-29T16:18:04.010Z,2.70
2023-03-29T16:20:38.416Z,2.65
2023-03-29T16:23:11.774Z,2.63
2023-03-29T16:25:44.853Z,2.58
2023-03-29T16:28:18.761Z,2.54
2023-03-29T16:30:51.933Z,2.55
2023-03-29T16:33:25.131Z,2.57
2023-03-29T16:35:58.948Z,2.59
2023-03-29T16:38:34.207Z,2.60
2023-03-29T16:41:28.421Z,2.58
2023-03-29T16:44:02.080Z,2.57
2023-03-29T16:46:34.965Z,2.50
2023-03-29T16:49:08.723Z,2.53
2023-03-29T16:51:42.319Z,2.54
2023-03-29T16:54:15.722Z,2.54
2023-03-29T16:56:48.989Z,2.52
2023-03-29T16:59:22.496Z,2.41
2023-03-29T17:01:55.079Z,2.41
2023-03-29T17:04:27.860Z,2.47
2023-03-29T17:07:01.419Z,2.51
2023-03-29T17:09:35.603Z,2.52
2023-03-29T17:12:08.222Z,2.51
2023-03-29T17:14:42.168Z,2.50
2023-03-29T17:17:15.780Z,2.54
2023-03-29T17:19:48.517Z,2.56
2023-03-29T17:22:21.104Z,2.61
2023-03-29T17:24:54.697Z,2.60
2023-03-29T17:27:28.128Z,2.56
2023-03-29T17:30:00.549Z,2.49
2023-03-29T17:32:34.297Z,2.48
2023-03-29T17:35:08.087Z,2.49
2023-03-29T17:37:42.104Z,2.50
2023-03-29T17:40:16.333Z,2.55
2023-03-29T17:42:51.607Z,2.58
2023-03-29T17:45:25.531Z,2.62
2023-03-29T17:47:58.260Z,2.60
2023-03-29T17:50:31.540Z,2.62
2023-03-29T17:53:05.739Z,2.63
2023-03-29T17:55:41.986Z,2.62
2023-03-29T17:58:14.983Z,2.59
2023-03-29T18:01:00.521Z,2.55
2023-03-29T18:03:34.810Z,2.50
2023-03-29T18:06:08.867Z,2.48
2023-03-29T18:08:41.707Z,2.49
2023-03-29T18:11:20.718Z,2.47
2023-03-29T18:13:54.365Z,2.46
2023-03-29T18:16:27.464Z,2.43
2023-03-29T18:19:00.296Z,2.46
2023-03-29T18:21:33.173Z,2.43
2023-03-29T18:24:06.636Z,2.43
2023-03-29T18:26:39.637Z,2.40
2023-03-29T18:29:12.929Z,2.36
2023-03-29T18:31:46.414Z,2.39
2023-03-29T18:34:19.159Z,2.39
2023-03-29T18:36:54.024Z,2.40
2023-03-29T18:39:27.436Z,2.39
2023-03-29T18:42:01.804Z,2.40
2023-03-29T18:44:35.397Z,2.40
2023-03-29T18:47:08.898Z,2.40
2023-03-29T18:49:43.327Z,2.40
2023-03-29T18:52:15.784Z,2.43
2023-03-29T18:54:48.471Z,2.43
2023-03-29T18:57:21.278Z,2.44
2023-03-29T18:59:54.771Z,2.48
2023-03-29T19:02:27.870Z,2.46
2023-03-29T19:05:01.971Z,2.50
2023-03-29T19:07:35.586Z,2.48
2023-03-29T19:10:09.560Z,2.48
2023-03-29T19:12:42.699Z,2.48
2023-03-29T19:15:16.580Z,2.43
2023-03-29T19:17:50.653Z,2.43
2023-03-29T19:20:25.165Z,2.41
2023-03-29T19:22:58.146Z,2.41
2023-03-29T19:25:32.416Z,2.41
2023-03-29T19:28:05.109Z,2.39
2023-03-29T19:30:37.750Z,2.36
2023-03-29T19:33:11.608Z,2.38
2023-03-29T19:35:46.424Z,2.34
2023-03-29T19:38:21.792Z,2.37
2023-03-29T19:40:54.981Z,2.34
2023-03-29T19:43:28.699Z,2.31
2023-03-29T19:46:11.109Z,2.27
2023-03-29T19:48:43.700Z,2.29
2023-03-29T19:51:31.339Z,2.24
2023-03-29T19:54:04.983Z,2.24
2023-03-29T19:56:38.069Z,2.23
2023-03-29T19:59:15.657Z,2.22
2023-03-29T20:01:49.944Z,2.18
2023-03-29T20:04:24.686Z,2.15
2023-03-29T20:06:57.830Z,2.12
2023-03-29T20:09:30.782Z,2.07
2023-03-29T20:12:03.902Z,2.10
2023-03-29T20:14:38.606Z,2.08
2023-03-29T20:17:11.421Z,2.09
2023-03-29T20:19:44.776Z,2.06
2023-03-29T20:22:19.188Z,2.06
2023-03-29T20:24:52.048Z,2.08
2023-03-29T20:27:25.691Z,2.10
2023-03-29T20:29:58.341Z,2.08
2023-03-29T20:32:31.232Z,2.10
2023-03-29T20:35:04.844Z,2.11
2023-03-29T20:37:37.535Z,2.07
2023-03-29T20:40:13.180Z,2.05
2023-03-29T20:42:46.332Z,2.02
2023-03-29T20:45:21.969Z,1.98
2023-03-29T20:48:02.478Z,1.97
2023-03-29T20:50:36.924Z,1.93
2023-03-29T20:53:09.728Z,1.92
2023-03-29T20:55:42.926Z,1.93
2023-03-29T20:58:16.179Z,1.89
2023-03-29T21:00:48.703Z,1.87
2023-03-29T21:03:22.603Z,1.84
2023-03-29T21:05:57.591Z,1.80
2023-03-29T21:08:31.339Z,1.76
2023-03-29T21:11:04.481Z,1.75
2023-03-29T21:13:48.752Z,1.71
2023-03-29T21:16:21.359Z,1.65
2023-03-29T21:18:54.208Z,1.60
2023-03-29T21:21:26.657Z,1.56
2023-03-29T21:24:00.216Z,1.50
2023-03-29T21:26:33.078Z,1.51
2023-03-29T21:29:05.763Z,1.51
2023-03-29T21:31:40.260Z,1.45
2023-03-29T21:34:12.828Z,1.40
2023-03-29T21:36:47.056Z,1.36
2023-03-29T21:39:19.417Z,1.35
2023-03-29T21:41:51.895Z,1.32
2023-03-29T21:44:26.418Z,1.34
2023-03-29T21:46:59.071Z,1.31
2023-03-29T21:49:32.426Z,1.28
2023-03-29T21:52:05.260Z,1.29
2023-03-29T21:54:39.549Z,1.33
2023-03-29T21:57:12.370Z,1.36
2023-03-29T21:59:44.835Z,1.39
2023-03-29T22:02:17.925Z,1.32
2023-03-29T22:04:50.296Z,1.26
2023-03-29T22:07:25.635Z,1.20
2023-03-29T22:09:58.922Z,1.18
2023-03-29T22:12:34.778Z,1.15
2023-03-29T22:15:10.886Z,1.17
2023-03-29T22:17:43.652Z,1.14
2023-03-29T22:20:18.566Z,1.07
2023-03-29T22:22:52.421Z,1.04
2023-03-29T22:25:25.176Z,1.00
2023-03-29T22:27:58.336Z,1.03
2023-03-29T22:30:31.225Z,1.02
2023-03-29T22:33:04.093Z,1.00
2023-03-29T22:35:38.201Z,1.01
2023-03-29T22:38:10.951Z,1.00
2023-03-29T22:40:43.960Z,0.97
2023-03-29T22:43:16.549Z,0.95
2023-03-29T22:45:50.105Z,0.91
2023-03-29T22:48:23.355Z,0.87
2023-03-29T22:50:55.748Z,0.87
2023-03-29T22:53:28.946Z,0.86
2023-03-29T22:56:01.508Z,0.80
2023-03-29T22:58:34.129Z,0.85
2023-03-29T23:01:08.486Z,0.86
2023-03-29T23:03:41.945Z,0.88
2023-03-29T23:06:14.693Z,0.85
2023-03-29T23:08:47.813Z,0.85
2023-03-29T23:11:21.679Z,0.85
2023-03-29T23:13:55.336Z,0.87
2023-03-29T23:16:27.988Z,0.88
2023-03-29T23:19:01.499Z,0.79
2023-03-29T23:21:35.792Z,0.79
2023-03-29T23:24:09.687Z,0.72
2023-03-29T23:26:44.107Z,0.65
2023-03-29T23:29:16.752Z,0.66
2023-03-29T23:31:50.290Z,0.66
2023-03-29T23:34:23.280Z,0.67
2023-03-29T23:36:57.169Z,0.66
2023-03-29T23:39:29.914Z,0.62
2023-03-29T23:42:03.630Z,0.60
2023-03-29T23:44:37.944Z,0.59
2023-03-29T23:47:11.477Z,0.59
2023-03-29T23:49:45.708Z,0.57
2023-03-29T23:52:18.493Z,0.55
2023-03-29T23:54:52.278Z,0.55
2023-03-29T23:57:27.924Z,0.56
